Therese Danos — WDH3296 — position and weather

sailwx.info

Track history (hours):
 
Tides and Currents Weather Stations Pressure Air Temp Water Temp Dewpoint Dewpoint Depression Visibility Wind Speed Wind Dir Waves Ship Positions

Therese Danos

Owner: Henry T. Marine, Inc., Larose, LA. More information available from US FCC via Universal Licensing System and Coast Guard Vessel Documentation Center.

Last reported at 2018-Jun-23 01:49 UTC. Time now 2018-Jun-24 11:13 UTC.
Position N 29°15' W 093°11'.

Length 40 m; draft 3 m.

Type: Cargo ship. MMSI: 367606280.

Date/timePositionNaut miles runAvg speedWind from/ knotsBaromVisibWave heightAir tempDewpointWater temp
2018-Jun-23 01:49N 29°15' W 093°11'0 0.0
2018-Jun-23 01:29N 29°15' W 093°11'0 0.0
2018-Jun-23 00:54N 29°15' W 093°11'31 8.1
2018-Jun-22 21:07N 29°44' W 093°20'5 1.4
2018-Jun-22 17:19N 29°49' W 093°20'1 0.3
2018-Jun-22 14:20N 29°48' W 093°21'0 0.0
2018-Jun-22 14:00N 29°48' W 093°21'0 0.0
2018-Jun-22 13:28N 29°48' W 093°21'0 0.0
2018-Jun-22 10:56N 29°48' W 093°21'0 0.0
2018-Jun-22 10:25N 29°48' W 093°21'0 0.0
2018-Jun-22 09:52N 29°48' W 093°21'0 0.0
2018-Jun-22 09:07N 29°48' W 093°21'0 0.0
2018-Jun-22 08:53N 29°48' W 093°21'0 0.0
2018-Jun-22 08:07N 29°48' W 093°21'0 0.0
2018-Jun-22 08:00N 29°48' W 093°21'0 0.0
2018-Jun-22 07:30N 29°48' W 093°21'0 0.0
2018-Jun-22 06:59N 29°48' W 093°21'0 0.0
2018-Jun-22 06:30N 29°48' W 093°21'0 0.0
2018-Jun-22 05:57N 29°48' W 093°21'0 0.0
2018-Jun-22 05:30N 29°48' W 093°21'0 0.0
2018-Jun-22 05:00N 29°48' W 093°21'0 0.0
2018-Jun-22 04:30N 29°48' W 093°21'0 0.0
2018-Jun-22 03:59N 29°48' W 093°21'0 0.0
2018-Jun-22 03:30N 29°48' W 093°21'0 0.0
2018-Jun-22 02:55N 29°48' W 093°21'0 0.0
2018-Jun-22 02:28N 29°48' W 093°21'0 0.0
2018-Jun-22 01:59N 29°48' W 093°21'0 0.0
2018-Jun-22 01:28N 29°48' W 093°21'0 0.0
2018-Jun-22 00:59N 29°48' W 093°21'0 0.0
2018-Jun-22 00:30N 29°48' W 093°21'0 0.0
2018-Jun-22 00:00N 29°48' W 093°21'2 4.0
2018-Jun-21 23:30N 29°46' W 093°21'0 0.0
2018-Jun-21 23:00N 29°46' W 093°21'0 0.0
2018-Jun-21 22:30N 29°46' W 093°21'0 0.0
2018-Jun-21 21:59N 29°46' W 093°21'0 0.0
2018-Jun-21 21:30N 29°46' W 093°21'0 0.0
2018-Jun-21 21:00N 29°46' W 093°21'0 0.0
2018-Jun-21 20:29N 29°46' W 093°21'0 0.0
2018-Jun-21 20:00N 29°46' W 093°21'0 0.0
2018-Jun-21 19:29N 29°46' W 093°21'0 0.0
2018-Jun-21 19:00N 29°46' W 093°21'3 5.8
2018-Jun-21 18:31N 29°49' W 093°21'0 0.1
2018-Jun-21 17:59N 29°49' W 093°20'0 0.0
2018-Jun-21 17:30N 29°49' W 093°20'0 0.0
2018-Jun-21 17:00N 29°49' W 093°20'0 0.0
2018-Jun-21 16:29N 29°49' W 093°20'0 0.1
2018-Jun-21 14:59N 29°49' W 093°20'0 0.0
2018-Jun-21 14:09N 29°49' W 093°20'  
2018-Jun-16 01:38N 29°49' W 093°20'0 0.4
2018-Jun-16 01:30N 29°49' W 093°20'0 0.0
2018-Jun-16 00:54N 29°49' W 093°20'0 0.0
2018-Jun-16 00:30N 29°49' W 093°20'0 0.0
2018-Jun-15 23:57N 29°49' W 093°20'0 0.0
2018-Jun-15 23:28N 29°49' W 093°20'0 0.0
2018-Jun-15 22:47N 29°49' W 093°20'0 0.0
2018-Jun-15 22:21N 29°49' W 093°20'0 0.0
2018-Jun-15 21:53N 29°49' W 093°20'0 0.0
2018-Jun-15 21:25N 29°49' W 093°20'0 0.1
2018-Jun-15 20:59N 29°49' W 093°20'0 0.0
2018-Jun-15 19:17N 29°49' W 093°20'0 0.0
2018-Jun-13 23:50N 29°49' W 093°20'0 0.1
2018-Jun-13 23:25N 29°49' W 093°20'0 0.0
2018-Jun-13 16:57N 29°49' W 093°21'  
Track history (hours):
 
Tides and Currents Weather Stations Pressure Air Temp Water Temp Dewpoint Dewpoint Depression Visibility Wind Speed Wind Dir Waves Ship Positions

Therese Danos

Owner: Henry T. Marine, Inc., Larose, LA. More information available from US FCC via Universal Licensing System and Coast Guard Vessel Documentation Center.

Last reported at 2018-Jun-23 01:49 UTC. Time now 2018-Jun-24 11:13 UTC.
Position N 29°15' W 093°11'.

Length 40 m; draft 3 m.

Type: Cargo ship. MMSI: 367606280.

Date/timePositionNaut miles runAvg speedWind from/ knotsBaromVisibWave heightAir tempDewpointWater temp
2018-Jun-23 01:49N 29°15' W 093°11'0 0.0
2018-Jun-23 01:29N 29°15' W 093°11'0 0.0
2018-Jun-23 00:54N 29°15' W 093°11'31 8.1
2018-Jun-22 21:07N 29°44' W 093°20'5 1.4
2018-Jun-22 17:19N 29°49' W 093°20'1 0.3
2018-Jun-22 14:20N 29°48' W 093°21'0 0.0
2018-Jun-22 14:00N 29°48' W 093°21'0 0.0
2018-Jun-22 13:28N 29°48' W 093°21'0 0.0
2018-Jun-22 10:56N 29°48' W 093°21'0 0.0
2018-Jun-22 10:25N 29°48' W 093°21'0 0.0
2018-Jun-22 09:52N 29°48' W 093°21'0 0.0
2018-Jun-22 09:07N 29°48' W 093°21'0 0.0
2018-Jun-22 08:53N 29°48' W 093°21'0 0.0
2018-Jun-22 08:07N 29°48' W 093°21'0 0.0
2018-Jun-22 08:00N 29°48' W 093°21'0 0.0
2018-Jun-22 07:30N 29°48' W 093°21'0 0.0
2018-Jun-22 06:59N 29°48' W 093°21'0 0.0
2018-Jun-22 06:30N 29°48' W 093°21'0 0.0
2018-Jun-22 05:57N 29°48' W 093°21'0 0.0
2018-Jun-22 05:30N 29°48' W 093°21'0 0.0
2018-Jun-22 05:00N 29°48' W 093°21'0 0.0
2018-Jun-22 04:30N 29°48' W 093°21'0 0.0
2018-Jun-22 03:59N 29°48' W 093°21'0 0.0
2018-Jun-22 03:30N 29°48' W 093°21'0 0.0
2018-Jun-22 02:55N 29°48' W 093°21'0 0.0
2018-Jun-22 02:28N 29°48' W 093°21'0 0.0
2018-Jun-22 01:59N 29°48' W 093°21'0 0.0
2018-Jun-22 01:28N 29°48' W 093°21'0 0.0
2018-Jun-22 00:59N 29°48' W 093°21'0 0.0
2018-Jun-22 00:30N 29°48' W 093°21'0 0.0
2018-Jun-22 00:00N 29°48' W 093°21'2 4.0
2018-Jun-21 23:30N 29°46' W 093°21'0 0.0
2018-Jun-21 23:00N 29°46' W 093°21'0 0.0
2018-Jun-21 22:30N 29°46' W 093°21'0 0.0
2018-Jun-21 21:59N 29°46' W 093°21'0 0.0
2018-Jun-21 21:30N 29°46' W 093°21'0 0.0
2018-Jun-21 21:00N 29°46' W 093°21'0 0.0
2018-Jun-21 20:29N 29°46' W 093°21'0 0.0
2018-Jun-21 20:00N 29°46' W 093°21'0 0.0
2018-Jun-21 19:29N 29°46' W 093°21'0 0.0
2018-Jun-21 19:00N 29°46' W 093°21'3 5.8
2018-Jun-21 18:31N 29°49' W 093°21'0 0.1
2018-Jun-21 17:59N 29°49' W 093°20'0 0.0
2018-Jun-21 17:30N 29°49' W 093°20'0 0.0
2018-Jun-21 17:00N 29°49' W 093°20'0 0.0
2018-Jun-21 16:29N 29°49' W 093°20'0 0.1
2018-Jun-21 14:59N 29°49' W 093°20'0 0.0
2018-Jun-21 14:09N 29°49' W 093°20'  
2018-Jun-16 01:38N 29°49' W 093°20'0 0.4
2018-Jun-16 01:30N 29°49' W 093°20'0 0.0
2018-Jun-16 00:54N 29°49' W 093°20'0 0.0
2018-Jun-16 00:30N 29°49' W 093°20'0 0.0
2018-Jun-15 23:57N 29°49' W 093°20'0 0.0
2018-Jun-15 23:28N 29°49' W 093°20'0 0.0
2018-Jun-15 22:47N 29°49' W 093°20'0 0.0
2018-Jun-15 22:21N 29°49' W 093°20'0 0.0
2018-Jun-15 21:53N 29°49' W 093°20'0 0.0
2018-Jun-15 21:25N 29°49' W 093°20'0 0.1
2018-Jun-15 20:59N 29°49' W 093°20'0 0.0
2018-Jun-15 19:17N 29°49' W 093°20'0 0.0
2018-Jun-13 23:50N 29°49' W 093°20'0 0.1
2018-Jun-13 23:25N 29°49' W 093°20'0 0.0
2018-Jun-13 16:57N 29°49' W 093°21'  

Dump ship's entire track history